Time;durP1;ratioP1;P1;durP2;ratioP2;P2;SDS_P1;SDS_P2;PMS_P1;PMS_P2;Temp;Humidity;BMP_temperature;BMP_pressure;BME280_temperature;BME280_humidity;BME280_pressure;Samples;Min_cycle;Max_cycle;Signal;HPM_P1;HPM_P2
2022/12/20 00:01:08;;;;;;;20.87;9.90;;;3.40;99.90;;;;;;5025538;28;20210;-61
2022/12/20 00:03:36;;;;;;;20.17;10.33;;;3.40;99.90;;;;;;5026956;28;20225;-61
2022/12/20 00:06:04;;;;;;;19.10;9.60;;;3.40;99.90;;;;;;5028276;28;20194;-61
2022/12/20 00:08:31;;;;;;;16.63;9.10;;;3.40;99.90;;;;;;5027185;28;20296;-61
2022/12/20 00:11:01;;;;;;;13.63;7.60;;;3.40;99.90;;;;;;5028181;28;20205;-60
2022/12/20 00:13:28;;;;;;;13.20;7.33;;;3.50;99.90;;;;;;5025041;28;20229;-61
2022/12/20 00:16:04;;;;;;;11.93;7.47;;;3.50;99.90;;;;;;5028159;28;20244;-61
2022/12/20 00:18:32;;;;;;;10.33;6.10;;;3.60;99.90;;;;;;5025010;28;20194;-61
2022/12/20 00:21:01;;;;;;;10.23;5.87;;;3.60;99.90;;;;;;5028569;28;20545;-61
2022/12/20 00:23:29;;;;;;;7.37;5.10;;;3.60;99.90;;;;;;5025063;28;20218;-61
2022/12/20 00:26:01;;;;;;;11.47;6.20;;;3.60;99.90;;;;;;5027788;28;20195;-61
2022/12/20 00:28:28;;;;;;;8.83;5.63;;;3.70;99.90;;;;;;5025141;28;20242;-61
2022/12/20 00:30:55;;;;;;;8.67;5.37;;;3.70;99.90;;;;;;5026436;28;20288;-61
2022/12/20 00:33:23;;;;;;;16.87;7.77;;;3.80;99.90;;;;;;5026118;28;20320;-61
2022/12/20 00:35:50;;;;;;;18.23;7.83;;;3.80;99.90;;;;;;5027738;28;20241;-61
2022/12/20 00:38:18;;;;;;;17.77;7.80;;;3.80;99.90;;;;;;5027386;28;20587;-60
2022/12/20 00:40:46;;;;;;;16.60;7.83;;;3.80;99.90;;;;;;5026584;28;20193;-60
2022/12/20 00:43:13;;;;;;;17.30;7.63;;;3.80;99.90;;;;;;5001728;28;20623;-61
2022/12/20 00:45:40;;;;;;;14.93;7.33;;;3.80;99.90;;;;;;5027365;28;20230;-61
2022/12/20 00:48:07;;;;;;;15.03;7.00;;;3.80;99.90;;;;;;5026629;28;20230;-61
2022/12/20 00:50:34;;;;;;;15.40;7.23;;;3.80;99.90;;;;;;5027290;28;20202;-61
2022/12/20 00:53:02;;;;;;;14.93;7.13;;;3.80;99.90;;;;;;5026153;28;20190;-61
2022/12/20 00:55:30;;;;;;;14.77;7.10;;;3.80;99.90;;;;;;5025943;28;20240;-61
2022/12/20 00:57:57;;;;;;;16.63;7.60;;;3.80;99.90;;;;;;5007203;28;20187;-61
2022/12/20 01:00:24;;;;;;;16.10;7.30;;;3.90;99.90;;;;;;5026672;28;20203;-60
2022/12/20 01:02:51;;;;;;;11.40;6.30;;;3.90;99.90;;;;;;5023741;28;20234;-60
2022/12/20 01:05:18;;;;;;;13.30;7.10;;;3.90;99.90;;;;;;5026868;28;20198;-62
2022/12/20 01:07:46;;;;;;;13.77;6.57;;;4.00;99.90;;;;;;5025636;28;20236;-61
2022/12/20 01:10:13;;;;;;;11.60;6.20;;;4.00;99.90;;;;;;5026018;28;20666;-61
2022/12/20 01:12:41;;;;;;;10.90;6.03;;;4.00;99.90;;;;;;5007998;28;20198;-60
2022/12/20 01:15:10;;;;;;;8.57;5.13;;;4.00;99.90;;;;;;5028585;28;20190;-61
2022/12/20 01:17:40;;;;;;;9.73;4.80;;;4.00;99.90;;;;;;5023804;28;20244;-61
2022/12/20 01:20:08;;;;;;;10.27;5.40;;;4.00;99.90;;;;;;5010146;28;20252;-61
2022/12/20 01:22:35;;;;;;;9.03;5.33;;;4.00;99.90;;;;;;5007888;28;20285;-60
2022/12/20 01:25:02;;;;;;;11.67;5.67;;;4.10;99.90;;;;;;5025962;28;20198;-60
2022/12/20 01:27:29;;;;;;;11.63;6.13;;;4.20;99.90;;;;;;5025374;28;20190;-61
2022/12/20 01:29:58;;;;;;;9.03;4.67;;;4.10;99.90;;;;;;5026475;28;20263;-61
2022/12/20 01:32:25;;;;;;;7.17;4.20;;;4.10;99.90;;;;;;5025438;28;20194;-61
2022/12/20 01:34:54;;;;;;;6.33;3.93;;;4.20;99.90;;;;;;5008344;28;20717;-61
2022/12/20 01:37:21;;;;;;;6.90;4.17;;;4.20;99.90;;;;;;5024850;28;20322;-61
2022/12/20 01:39:48;;;;;;;7.53;4.07;;;4.20;99.90;;;;;;5026257;28;20280;-61
2022/12/20 01:42:15;;;;;;;5.73;3.47;;;4.20;99.90;;;;;;5005572;28;20223;-61
2022/12/20 01:44:56;;;;;;;3.77;2.97;;;4.30;99.90;;;;;;5026179;28;20624;-60
2022/12/20 01:47:26;;;;;;;4.93;3.23;;;4.30;99.90;;;;;;5007935;28;20233;-61
2022/12/20 01:49:56;;;;;;;3.50;2.70;;;4.30;99.90;;;;;;5025869;28;20578;-62
2022/12/20 01:52:30;;;;;;;4.37;2.73;;;4.40;99.90;;;;;;5006027;28;20500;-61
2022/12/20 01:55:04;;;;;;;5.00;3.23;;;4.40;99.90;;;;;;5007654;28;20241;-61
2022/12/20 01:57:38;;;;;;;4.90;3.70;;;4.40;99.90;;;;;;5025222;28;20778;-62
2022/12/20 02:00:08;;;;;;;4.23;3.40;;;4.40;99.90;;;;;;5010243;28;20309;-61
2022/12/20 02:02:43;;;;;;;5.50;4.03;;;4.50;99.90;;;;;;5025244;28;20311;-60
2022/12/20 02:05:13;;;;;;;2.90;2.50;;;4.50;99.90;;;;;;5027155;28;20232;-61
2022/12/20 02:07:42;;;;;;;4.93;3.50;;;4.50;99.90;;;;;;5021664;28;20195;-61
2022/12/20 02:10:11;;;;;;;5.93;3.67;;;4.60;99.90;;;;;;5009271;28;20245;-60
2022/12/20 02:12:41;;;;;;;5.07;3.50;;;4.60;99.90;;;;;;5009485;28;20419;-61
2022/12/20 02:15:30;;;;;;;5.17;3.40;;;4.60;99.90;;;;;;5026988;28;20335;-61
2022/12/20 02:18:13;;;;;;;4.73;3.30;;;4.70;99.90;;;;;;5013903;28;20209;-61
2022/12/20 02:20:59;;;;;;;6.27;4.30;;;4.70;99.90;;;;;;5031980;28;20217;-61
2022/12/20 02:24:05;;;;;;;7.30;4.50;;;4.70;99.90;;;;;;5010673;28;20213;-62
2022/12/20 02:26:59;;;;;;;4.77;3.80;;;4.70;99.90;;;;;;4956181;28;20259;-62
2022/12/20 02:29:35;;;;;;;8.13;3.97;;;4.80;99.90;;;;;;5028801;28;20210;-61
2022/12/20 02:32:09;;;;;;;4.27;3.77;;;4.80;99.90;;;;;;5027896;28;20305;-61
2022/12/20 02:34:38;;;;;;;5.20;4.20;;;4.80;99.90;;;;;;5008833;28;20294;-61
2022/12/20 02:37:05;;;;;;;4.80;3.90;;;4.80;99.90;;;;;;5028777;28;20309;-61
2022/12/20 02:39:34;;;;;;;6.73;4.67;;;4.80;99.90;;;;;;5012125;28;20619;-62
2022/12/20 02:42:05;;;;;;;5.97;3.67;;;4.90;99.90;;;;;;5028155;28;20512;-61
2022/12/20 02:47:26;;;;;;;6.13;4.80;;;4.90;99.90;;;;;;5008422;28;20756;-61
2022/12/20 02:49:55;;;;;;;6.43;4.93;;;4.90;99.90;;;;;;5011756;28;20229;-61
2022/12/20 02:52:25;;;;;;;9.10;5.70;;;4.90;99.90;;;;;;5010294;28;20214;-62
2022/12/20 02:54:54;;;;;;;8.70;5.87;;;4.90;99.90;;;;;;5029994;28;20229;-61
2022/12/20 02:57:26;;;;;;;10.47;5.83;;;5.00;99.90;;;;;;5009887;28;20794;-62
2022/12/20 03:00:02;;;;;;;8.47;6.00;;;5.00;99.90;;;;;;5012932;28;20202;-61
2022/12/20 03:03:21;;;;;;;9.80;6.80;;;5.00;99.90;;;;;;5009582;28;20231;-60
2022/12/20 03:05:25;;;;;;;7.87;5.57;;;5.00;99.90;;;;;;5010024;28;20272;-61
2022/12/20 03:07:53;;;;;;;9.40;6.07;;;5.10;99.90;;;;;;5011550;28;20205;-62
2022/12/20 03:10:23;;;;;;;10.33;6.93;;;5.10;99.90;;;;;;5012285;28;20218;-61
2022/12/20 03:12:50;;;;;;;11.33;6.53;;;5.20;99.90;;;;;;5010420;28;20203;-61
2022/12/20 03:15:18;;;;;;;11.43;6.77;;;5.20;99.90;;;;;;5012253;28;20610;-61
2022/12/20 03:17:48;;;;;;;11.40;7.00;;;5.20;99.90;;;;;;5010524;28;20711;-61
2022/12/20 03:20:15;;;;;;;11.83;6.93;;;5.20;99.90;;;;;;5028134;28;20261;-61
2022/12/20 03:22:42;;;;;;;13.03;7.27;;;5.20;99.90;;;;;;5028487;28;20674;-61
2022/12/20 03:25:10;;;;;;;12.37;7.97;;;5.30;99.90;;;;;;5029215;28;20252;-62
2022/12/20 03:27:37;;;;;;;15.23;9.20;;;5.30;99.90;;;;;;5010265;28;20195;-61
2022/12/20 03:30:06;;;;;;;13.10;8.10;;;5.30;99.90;;;;;;5011517;28;20273;-61
2022/12/20 03:32:37;;;;;;;14.00;8.50;;;5.30;99.90;;;;;;5008097;28;20221;-62
2022/12/20 03:35:06;;;;;;;14.20;8.00;;;5.30;99.90;;;;;;5010918;28;20281;-62
2022/12/20 03:37:37;;;;;;;14.93;8.50;;;5.30;99.90;;;;;;5009452;28;20187;-61
2022/12/20 03:40:07;;;;;;;15.90;8.97;;;5.40;99.90;;;;;;5029378;28;20190;-61
2022/12/20 03:42:35;;;;;;;15.17;8.47;;;5.40;99.90;;;;;;5008686;28;20663;-61
2022/12/20 03:45:02;;;;;;;16.53;9.33;;;5.40;99.90;;;;;;5010356;28;20668;-62
2022/12/20 03:47:34;;;;;;;15.37;9.67;;;5.40;99.90;;;;;;5010126;28;20191;-62
2022/12/20 03:50:02;;;;;;;13.43;8.67;;;5.40;99.90;;;;;;5009239;28;20230;-62
2022/12/20 03:52:34;;;;;;;13.37;8.53;;;5.40;99.90;;;;;;5008697;28;20230;-61
2022/12/20 03:55:02;;;;;;;17.20;9.97;;;5.40;99.90;;;;;;5008483;28;20549;-62
2022/12/20 03:57:44;;;;;;;16.97;10.27;;;5.40;99.90;;;;;;5008032;28;20309;-62
2022/12/20 04:00:26;;;;;;;18.80;10.40;;;5.50;99.90;;;;;;5011901;28;20199;-62
2022/12/20 04:03:00;;;;;;;16.53;9.23;;;5.50;99.90;;;;;;5010048;28;20227;-61
2022/12/20 04:05:28;;;;;;;17.53;9.80;;;5.50;99.90;;;;;;5010344;28;20255;-61
2022/12/20 04:07:58;;;;;;;15.37;9.30;;;5.50;99.90;;;;;;5010558;28;20727;-61
2022/12/20 04:10:25;;;;;;;17.03;9.50;;;5.50;99.90;;;;;;5027113;28;20293;-61
2022/12/20 04:12:53;;;;;;;18.43;10.43;;;5.50;99.90;;;;;;5009967;28;20767;-61
2022/12/20 04:15:21;;;;;;;21.73;11.30;;;5.50;99.90;;;;;;5009947;28;20214;-61
2022/12/20 04:17:49;;;;;;;16.70;10.23;;;5.60;99.90;;;;;;5008963;28;20202;-61
2022/12/20 04:20:20;;;;;;;16.00;9.60;;;5.60;99.90;;;;;;5011670;28;20620;-61
2022/12/20 04:22:55;;;;;;;14.70;9.33;;;5.60;99.90;;;;;;5009313;28;20294;-61
2022/12/20 04:25:24;;;;;;;13.93;8.57;;;5.60;99.90;;;;;;5027019;28;20211;-61
2022/12/20 04:27:51;;;;;;;15.87;9.90;;;5.60;99.90;;;;;;5009489;28;20206;-62
2022/12/20 04:30:18;;;;;;;17.07;10.27;;;5.70;99.90;;;;;;5012631;28;20306;-61
2022/12/20 04:32:46;;;;;;;19.40;10.60;;;5.70;99.90;;;;;;5009425;28;20262;-63
2022/12/20 04:35:13;;;;;;;18.97;10.60;;;5.70;99.90;;;;;;5011171;28;20296;-62
2022/12/20 04:37:42;;;;;;;13.73;8.50;;;5.70;99.90;;;;;;5027450;28;20193;-62
2022/12/20 04:40:10;;;;;;;15.23;9.50;;;5.70;99.90;;;;;;5011605;28;20207;-62
2022/12/20 04:42:47;;;;;;;16.50;9.47;;;5.70;99.90;;;;;;5006212;28;21139;-62
2022/12/20 04:45:16;;;;;;;14.13;8.87;;;5.80;99.90;;;;;;5012240;28;20303;-61
2022/12/20 04:47:43;;;;;;;15.83;9.80;;;5.80;99.90;;;;;;5009437;28;20201;-61
2022/12/20 04:50:12;;;;;;;12.53;7.97;;;5.80;99.90;;;;;;5009486;28;20220;-62
2022/12/20 04:55:26;;;;;;;13.03;7.93;;;5.80;99.90;;;;;;5010287;28;20199;-62
2022/12/20 04:57:55;;;;;;;13.93;7.27;;;5.90;99.90;;;;;;5027039;28;20212;-61
2022/12/20 05:00:22;;;;;;;12.17;8.00;;;5.90;99.90;;;;;;5010454;28;20291;-62
2022/12/20 05:02:58;;;;;;;16.93;9.50;;;5.90;99.90;;;;;;4995829;28;20252;-62
2022/12/20 05:05:26;;;;;;;12.57;7.37;;;5.90;99.90;;;;;;4986580;28;20698;-62
2022/12/20 05:07:57;;;;;;;12.30;7.77;;;5.90;99.90;;;;;;4985413;28;20264;-60
2022/12/20 05:10:25;;;;;;;15.50;8.57;;;5.90;99.90;;;;;;4985883;28;20224;-62
2022/12/20 05:12:55;;;;;;;13.73;8.13;;;6.00;99.90;;;;;;4985327;28;20576;-62
2022/12/20 05:15:35;;;;;;;12.00;6.97;;;6.00;99.90;;;;;;4984064;28;20291;-61
2022/12/20 05:18:03;;;;;;;17.83;9.73;;;6.00;99.90;;;;;;4981130;28;20253;-62
2022/12/20 05:20:41;;;;;;;16.37;9.73;;;6.00;99.90;;;;;;4985789;28;20284;-62
2022/12/20 05:26:17;;;;;;;13.17;8.07;;;6.00;99.90;;;;;;4984286;28;20296;-61
2022/12/20 05:28:45;;;;;;;12.87;7.90;;;6.10;99.90;;;;;;4986165;28;20205;-62
2022/12/20 05:31:13;;;;;;;23.10;11.53;;;6.10;99.90;;;;;;4986873;28;20246;-61
2022/12/20 05:33:40;;;;;;;17.90;10.57;;;6.10;99.90;;;;;;4986930;28;20217;-62
2022/12/20 05:36:08;;;;;;;16.90;10.43;;;6.10;99.90;;;;;;4984582;28;20194;-62
2022/12/20 05:38:36;;;;;;;14.60;9.00;;;6.10;99.90;;;;;;4985575;28;20781;-62
2022/12/20 05:41:09;;;;;;;13.77;8.87;;;6.10;99.90;;;;;;4987938;28;20602;-62
2022/12/20 05:43:36;;;;;;;11.30;6.87;;;6.10;99.90;;;;;;4985587;28;20203;-62
2022/12/20 05:46:06;;;;;;;11.10;6.73;;;6.10;99.90;;;;;;4989036;28;20663;-62
2022/12/20 05:48:44;;;;;;;9.80;6.47;;;6.10;99.90;;;;;;4985148;28;20285;-62
2022/12/20 05:51:11;;;;;;;11.87;7.13;;;6.10;99.90;;;;;;4989512;28;20195;-61
2022/12/20 05:53:58;;;;;;;11.97;7.47;;;6.20;99.90;;;;;;4991830;28;20197;-62
2022/12/20 05:56:41;;;;;;;13.70;8.20;;;6.20;99.90;;;;;;4990766;28;20225;-62
2022/12/20 05:59:08;;;;;;;14.80;8.63;;;6.20;99.90;;;;;;4990251;28;20204;-62
2022/12/20 06:01:37;;;;;;;13.48;8.05;;;6.20;99.90;;;;;;4965247;28;1111378;-60
2022/12/20 06:04:05;;;;;;;13.40;7.57;;;6.20;99.90;;;;;;5012169;28;20193;-61
2022/12/20 06:06:32;;;;;;;15.37;8.80;;;6.20;99.90;;;;;;5014008;28;20192;-62
2022/12/20 06:09:01;;;;;;;10.00;6.80;;;6.20;99.90;;;;;;5010988;28;20714;-61
2022/12/20 06:11:38;;;;;;;13.70;7.40;;;6.20;99.90;;;;;;5013214;28;20612;-62
2022/12/20 06:14:09;;;;;;;19.87;11.53;;;6.30;99.90;;;;;;5009059;28;20197;-61
2022/12/20 06:16:41;;;;;;;15.53;9.03;;;6.30;99.90;;;;;;5015089;28;20200;-62
2022/12/20 06:19:10;;;;;;;14.33;8.43;;;6.30;99.90;;;;;;5012236;28;20234;-62
2022/12/20 06:21:38;;;;;;;14.50;8.27;;;6.30;99.90;;;;;;5012745;28;20225;-62
2022/12/20 06:24:06;;;;;;;21.67;10.20;;;6.30;99.90;;;;;;5010038;28;20290;-62
2022/12/20 06:26:38;;;;;;;16.17;9.03;;;6.30;99.90;;;;;;5013147;28;20224;-62
2022/12/20 06:29:09;;;;;;;15.40;8.17;;;6.30;99.90;;;;;;5013415;28;20296;-62
2022/12/20 06:31:45;;;;;;;13.10;7.73;;;6.30;99.90;;;;;;5011800;28;20556;-61
2022/12/20 06:34:12;;;;;;;15.50;8.03;;;6.10;99.90;;;;;;5012208;28;20298;-61
2022/12/20 06:36:42;;;;;;;33.73;15.17;;;6.30;99.90;;;;;;5013247;28;20284;-61
2022/12/20 06:39:15;;;;;;;37.43;15.37;;;6.30;99.90;;;;;;5011899;28;20543;-61
2022/12/20 06:41:51;;;;;;;32.07;14.70;;;6.30;99.90;;;;;;5009417;28;20204;-61
2022/12/20 06:44:18;;;;;;;27.80;13.77;;;6.30;99.90;;;;;;5028899;28;20270;-61
2022/12/20 06:46:47;;;;;;;27.53;13.83;;;6.30;99.90;;;;;;5012013;28;20290;-62
2022/12/20 06:49:14;;;;;;;31.53;13.87;;;6.30;99.90;;;;;;5009744;28;20235;-63
2022/12/20 06:51:42;;;;;;;30.20;14.77;;;6.30;99.90;;;;;;5012734;28;20202;-61
2022/12/20 06:54:11;;;;;;;33.40;15.53;;;6.20;99.90;;;;;;5006632;28;20292;-62
2022/12/20 06:56:38;;;;;;;38.40;16.77;;;6.20;99.90;;;;;;5030587;28;20592;-62
2022/12/20 06:59:09;;;;;;;40.23;17.90;;;6.20;99.90;;;;;;5010153;28;20225;-62
2022/12/20 07:01:36;;;;;;;31.93;15.43;;;6.10;99.90;;;;;;5029739;28;20244;-62
2022/12/20 07:04:04;;;;;;;30.13;13.83;;;6.10;99.90;;;;;;5029701;28;20270;-62
2022/12/20 07:06:31;;;;;;;27.13;12.47;;;6.10;99.90;;;;;;5032637;28;20209;-62
2022/12/20 07:08:58;;;;;;;30.30;14.17;;;6.10;99.90;;;;;;5014956;28;20216;-62
2022/12/20 07:11:26;;;;;;;31.17;15.17;;;6.10;99.90;;;;;;5025219;28;20687;-62
2022/12/20 07:13:55;;;;;;;30.17;14.60;;;6.10;99.90;;;;;;5021958;28;20558;-62
2022/12/20 07:16:22;;;;;;;33.40;15.13;;;6.10;99.90;;;;;;5026740;28;20211;-61
2022/12/20 07:18:50;;;;;;;35.67;16.33;;;6.10;99.90;;;;;;5027222;28;20302;-61
2022/12/20 07:21:19;;;;;;;38.93;18.17;;;6.10;99.90;;;;;;5025506;28;20199;-62
2022/12/20 07:23:46;;;;;;;37.03;16.40;;;6.10;99.90;;;;;;5025281;28;20557;-61
2022/12/20 07:26:14;;;;;;;43.43;17.83;;;6.00;99.90;;;;;;5026680;28;20248;-61
2022/12/20 07:28:42;;;;;;;42.50;18.87;;;6.00;99.90;;;;;;5023555;28;20827;-61
2022/12/20 07:31:09;;;;;;;45.53;19.40;;;6.00;99.90;;;;;;5025385;28;20254;-62
2022/12/20 07:33:37;;;;;;;42.67;18.43;;;6.00;99.90;;;;;;5024974;28;20979;-62
2022/12/20 07:36:06;;;;;;;39.90;16.67;;;6.00;99.90;;;;;;5027452;28;20631;-61
2022/12/20 07:38:35;;;;;;;41.60;18.00;;;6.00;99.90;;;;;;5027525;28;20283;-61
2022/12/20 07:41:07;;;;;;;30.10;15.80;;;6.00;99.90;;;;;;5025574;28;20269;-62
2022/12/20 07:43:35;;;;;;;37.13;15.70;;;6.00;99.90;;;;;;5024747;28;20279;-61
2022/12/20 07:46:02;;;;;;;44.57;18.27;;;6.00;99.90;;;;;;5029680;28;20203;-62
2022/12/20 07:48:29;;;;;;;43.67;17.47;;;6.00;99.90;;;;;;5025995;28;20229;-62
2022/12/20 07:51:01;;;;;;;41.40;18.13;;;6.00;99.90;;;;;;5025592;28;20219;-62
2022/12/20 07:53:30;;;;;;;46.47;19.27;;;6.00;99.90;;;;;;5028506;28;20649;-61
2022/12/20 07:56:00;;;;;;;44.63;19.93;;;6.00;99.90;;;;;;5026771;28;20227;-62
2022/12/20 07:58:28;;;;;;;43.10;19.20;;;6.00;99.90;;;;;;5020322;28;20216;-62
2022/12/20 08:00:56;;;;;;;39.67;18.33;;;6.00;99.90;;;;;;5022659;28;20191;-61
2022/12/20 08:03:28;;;;;;;35.23;15.97;;;6.00;99.90;;;;;;5025936;28;20653;-61
2022/12/20 08:05:58;;;;;;;33.50;16.00;;;6.00;99.90;;;;;;5027966;28;20196;-61
2022/12/20 08:08:25;;;;;;;37.27;16.47;;;6.00;99.90;;;;;;5026409;28;20200;-61
2022/12/20 08:10:53;;;;;;;30.80;15.60;;;6.00;99.90;;;;;;5026966;28;20486;-61
2022/12/20 08:13:21;;;;;;;37.27;16.40;;;6.00;99.90;;;;;;5022071;28;20193;-62
2022/12/20 08:15:48;;;;;;;32.47;15.80;;;6.00;99.90;;;;;;5025554;28;20275;-61
2022/12/20 08:18:16;;;;;;;37.77;17.87;;;6.10;99.90;;;;;;5023831;28;20303;-61
2022/12/20 08:20:43;;;;;;;40.73;18.00;;;6.00;99.90;;;;;;5021061;28;20194;-61
2022/12/20 08:23:10;;;;;;;43.13;19.60;;;6.90;99.90;;;;;;5026714;28;20203;-61
2022/12/20 08:25:37;;;;;;;32.63;16.23;;;6.00;99.90;;;;;;5026740;28;20208;-61
2022/12/20 08:28:04;;;;;;;37.43;17.03;;;6.10;99.90;;;;;;5025416;28;20222;-61
2022/12/20 08:30:32;;;;;;;36.97;16.40;;;6.10;99.90;;;;;;5026868;28;20215;-61
2022/12/20 08:32:59;;;;;;;37.23;17.30;;;6.10;99.90;;;;;;5026194;28;20263;-61
2022/12/20 08:35:26;;;;;;;29.60;14.63;;;6.10;99.90;;;;;;5023735;28;20199;-61
2022/12/20 08:37:54;;;;;;;34.80;16.07;;;6.10;99.90;;;;;;5023683;28;20267;-62
2022/12/20 08:40:21;;;;;;;38.60;18.07;;;6.10;99.90;;;;;;5026594;28;20206;-62
2022/12/20 08:42:48;;;;;;;34.17;16.00;;;6.10;99.90;;;;;;5025925;28;20554;-61
2022/12/20 08:45:15;;;;;;;32.63;16.03;;;6.10;99.90;;;;;;5027561;28;20462;-61
2022/12/20 08:47:44;;;;;;;37.40;16.87;;;6.10;99.90;;;;;;5026679;28;20196;-61
2022/12/20 08:50:12;;;;;;;39.07;17.57;;;6.10;99.90;;;;;;5026718;28;20227;-61
2022/12/20 08:52:39;;;;;;;41.13;17.40;;;6.20;99.90;;;;;;5024051;28;20271;-62
2022/12/20 08:55:07;;;;;;;34.37;16.77;;;6.20;99.90;;;;;;5024442;28;20286;-62
2022/12/20 08:57:34;;;;;;;41.03;18.47;;;6.20;99.90;;;;;;5026036;28;20687;-62
2022/12/20 09:00:01;;;;;;;43.60;19.10;;;6.10;99.90;;;;;;5026364;28;20201;-61
2022/12/20 09:02:28;;;;;;;45.30;18.03;;;6.10;99.90;;;;;;5025917;28;20286;-61
2022/12/20 09:04:57;;;;;;;34.50;17.10;;;6.10;99.90;;;;;;5026517;28;20199;-60
2022/12/20 09:07:24;;;;;;;32.70;16.10;;;6.10;99.90;;;;;;5025605;28;20207;-62
2022/12/20 09:09:51;;;;;;;32.67;15.93;;;6.10;99.90;;;;;;5026144;28;20207;-62
2022/12/20 09:12:18;;;;;;;40.33;17.77;;;6.20;99.90;;;;;;5023833;28;20261;-61
2022/12/20 09:14:45;;;;;;;40.20;17.37;;;6.20;99.90;;;;;;5025244;28;20197;-61
2022/12/20 09:17:12;;;;;;;34.60;16.13;;;6.20;99.90;;;;;;5022154;28;20291;-62
2022/12/20 09:19:39;;;;;;;36.37;15.97;;;6.30;99.90;;;;;;5018551;28;20207;-62
2022/12/20 09:22:08;;;;;;;32.10;15.20;;;6.30;99.90;;;;;;5024060;28;20224;-62
2022/12/20 09:24:37;;;;;;;35.03;17.27;;;6.30;99.90;;;;;;5026054;28;20206;-62
2022/12/20 09:27:04;;;;;;;42.40;18.97;;;6.40;99.90;;;;;;5025161;28;20189;-61
2022/12/20 09:29:31;;;;;;;38.63;17.53;;;6.40;99.90;;;;;;5021224;28;20197;-60
2022/12/20 09:31:58;;;;;;;33.80;15.83;;;6.40;99.90;;;;;;5005220;28;20701;-62
2022/12/20 09:34:26;;;;;;;39.13;17.50;;;6.40;99.90;;;;;;5026086;28;20206;-62
2022/12/20 09:36:53;;;;;;;31.17;15.27;;;6.50;99.90;;;;;;5026663;28;20189;-62
2022/12/20 09:39:22;;;;;;;28.67;13.03;;;6.50;99.90;;;;;;5025337;28;20216;-61
2022/12/20 09:41:49;;;;;;;36.27;15.90;;;6.40;99.90;;;;;;5027723;28;20203;-62
2022/12/20 09:44:20;;;;;;;26.90;13.97;;;6.50;99.90;;;;;;5025818;28;20675;-62
2022/12/20 09:46:54;;;;;;;25.93;12.83;;;6.50;99.90;;;;;;5007383;28;20202;-61
2022/12/20 09:49:27;;;;;;;26.17;13.60;;;6.60;99.90;;;;;;5025349;28;20212;-60
2022/12/20 09:52:27;;;;;;;31.97;13.60;;;6.60;99.90;;;;;;5025169;28;20198;-61
2022/12/20 09:55:07;;;;;;;30.07;14.33;;;6.60;99.90;;;;;;4998545;28;20209;-62
2022/12/20 09:57:45;;;;;;;27.13;13.97;;;6.70;99.90;;;;;;5024783;28;20194;-60
2022/12/20 10:00:15;;;;;;;28.30;13.83;;;6.70;99.90;;;;;;5026501;28;20621;-62
2022/12/20 10:02:42;;;;;;;28.00;14.40;;;6.70;99.90;;;;;;5021262;28;20280;-61
2022/12/20 10:05:15;;;;;;;34.30;15.97;;;6.70;99.90;;;;;;5027665;28;20198;-61
2022/12/20 10:07:50;;;;;;;33.77;15.57;;;6.70;99.90;;;;;;5022966;28;20340;-62
2022/12/20 10:10:54;;;;;;;26.10;13.83;;;6.70;99.90;;;;;;5024322;28;20197;-62
2022/12/20 10:13:36;;;;;;;26.70;14.03;;;6.70;99.90;;;;;;5019719;28;20216;-61
2022/12/20 10:16:14;;;;;;;26.50;13.90;;;6.70;99.90;;;;;;5027720;28;20186;-61
2022/12/20 10:18:53;;;;;;;25.53;12.97;;;6.70;99.90;;;;;;5023948;28;20641;-60
2022/12/20 10:21:31;;;;;;;29.00;14.70;;;6.70;99.90;;;;;;5024941;28;20197;-62
2022/12/20 10:24:02;;;;;;;31.53;14.67;;;6.80;99.90;;;;;;5026869;28;20244;-62
2022/12/20 10:26:34;;;;;;;29.90;14.90;;;6.80;99.90;;;;;;5006383;28;20226;-61
2022/12/20 10:29:01;;;;;;;26.13;12.10;;;6.70;99.90;;;;;;5025293;28;20194;-61
2022/12/20 10:31:28;;;;;;;28.07;14.23;;;6.70;99.90;;;;;;5021698;28;20207;-61
2022/12/20 10:33:56;;;;;;;32.47;15.30;;;6.70;99.90;;;;;;5023488;28;20209;-61
2022/12/20 10:36:26;;;;;;;32.17;15.73;;;6.70;99.90;;;;;;5023910;28;20197;-61
2022/12/20 10:38:54;;;;;;;34.50;17.07;;;6.70;99.90;;;;;;5029031;28;20194;-62
2022/12/20 10:41:24;;;;;;;36.00;17.73;;;6.80;99.90;;;;;;5028374;28;20234;-62
2022/12/20 10:43:58;;;;;;;37.17;18.73;;;6.70;99.90;;;;;;5023178;28;20197;-61
2022/12/20 10:46:35;;;;;;;45.23;19.63;;;6.70;99.90;;;;;;5027989;28;20191;-61
2022/12/20 10:49:31;;;;;;;37.60;19.50;;;6.70;99.90;;;;;;5010616;28;20227;-62
2022/12/20 10:52:01;;;;;;;39.27;18.97;;;6.70;99.90;;;;;;5030462;28;20206;-62
2022/12/20 10:54:34;;;;;;;32.87;17.50;;;6.60;99.90;;;;;;5028103;28;20222;-61
2022/12/20 10:57:03;;;;;;;32.10;16.10;;;6.60;99.90;;;;;;5030856;28;20205;-61
2022/12/20 10:59:35;;;;;;;35.63;17.40;;;6.60;99.90;;;;;;5026197;28;20199;-61
2022/12/20 11:02:03;;;;;;;32.93;15.90;;;6.60;99.90;;;;;;5026315;28;20237;-61
2022/12/20 11:04:33;;;;;;;37.03;17.27;;;6.60;99.90;;;;;;5029869;28;20188;-62
2022/12/20 11:07:02;;;;;;;40.50;18.17;;;6.60;99.90;;;;;;5028619;28;20710;-62
2022/12/20 11:09:31;;;;;;;31.40;15.47;;;6.70;99.90;;;;;;5030337;28;20201;-61
2022/12/20 11:12:00;;;;;;;38.00;17.97;;;6.70;99.90;;;;;;5028448;28;20201;-61
2022/12/20 11:14:28;;;;;;;35.93;17.40;;;6.70;99.90;;;;;;5029995;28;20218;-63
2022/12/20 11:17:00;;;;;;;41.67;18.37;;;6.70;99.90;;;;;;5028917;28;20201;-62
2022/12/20 11:19:43;;;;;;;40.23;17.43;;;6.70;99.90;;;;;;5028050;28;20201;-62
2022/12/20 11:22:22;;;;;;;32.40;16.77;;;6.70;99.90;;;;;;5027418;28;20182;-61
2022/12/20 11:24:56;;;;;;;35.20;16.30;;;6.70;99.90;;;;;;5024965;28;20215;-62
2022/12/20 11:27:31;;;;;;;36.23;16.93;;;6.70;99.90;;;;;;5027774;28;20196;-62
2022/12/20 11:30:17;;;;;;;30.97;15.40;;;6.80;99.90;;;;;;5010035;28;20201;-62
2022/12/20 11:33:12;;;;;;;27.00;13.23;;;6.80;99.90;;;;;;5025877;28;20226;-61
2022/12/20 11:35:49;;;;;;;31.70;15.53;;;6.80;99.90;;;;;;5028267;28;20201;-62
2022/12/20 11:38:28;;;;;;;31.37;14.67;;;6.80;99.90;;;;;;5027861;28;20292;-62
2022/12/20 11:41:08;;;;;;;28.27;14.40;;;6.80;99.90;;;;;;5026051;28;20190;-62
2022/12/20 11:43:50;;;;;;;33.73;16.37;;;6.90;99.90;;;;;;5027693;28;20206;-62
2022/12/20 11:46:30;;;;;;;30.00;15.10;;;6.90;99.90;;;;;;5009083;28;20202;-60
2022/12/20 11:49:25;;;;;;;31.50;15.37;;;6.90;99.90;;;;;;5023939;28;20198;-63
2022/12/20 11:52:00;;;;;;;28.27;14.47;;;6.90;99.90;;;;;;5027951;28;20218;-61
2022/12/20 11:54:32;;;;;;;29.70;14.40;;;6.90;99.90;;;;;;5027315;28;20230;-62
2022/12/20 11:57:05;;;;;;;26.37;13.27;;;6.90;99.90;;;;;;5028095;28;20194;-61
2022/12/20 11:59:41;;;;;;;26.07;12.63;;;7.00;99.90;;;;;;5027890;28;20189;-62
2022/12/20 12:02:12;;;;;;;19.77;11.00;;;7.00;99.90;;;;;;5025663;28;20234;-61
2022/12/20 12:04:48;;;;;;;25.17;12.47;;;7.00;99.90;;;;;;5010775;28;20217;-62
2022/12/20 12:07:19;;;;;;;20.30;11.63;;;7.00;99.90;;;;;;5025834;28;20251;-62
2022/12/20 12:09:54;;;;;;;22.57;12.07;;;7.10;99.90;;;;;;5008602;28;20251;-62
2022/12/20 12:12:26;;;;;;;23.57;11.73;;;7.10;99.90;;;;;;5027703;28;20336;-61
2022/12/20 12:15:00;;;;;;;20.00;10.60;;;7.10;99.90;;;;;;5025723;28;20186;-62
2022/12/20 12:17:36;;;;;;;25.80;12.10;;;7.10;99.90;;;;;;5026639;28;20229;-61
2022/12/20 12:20:22;;;;;;;23.93;11.90;;;7.20;99.90;;;;;;5010422;28;20201;-61
2022/12/20 12:22:55;;;;;;;21.37;11.70;;;7.10;99.90;;;;;;5025878;28;20198;-62
2022/12/20 12:25:22;;;;;;;21.83;11.03;;;7.10;99.90;;;;;;5026648;28;20313;-61
2022/12/20 12:27:50;;;;;;;23.63;11.73;;;7.10;99.90;;;;;;5026082;28;20244;-62
2022/12/20 12:30:17;;;;;;;23.37;11.57;;;7.20;99.90;;;;;;5029947;28;20628;-63
2022/12/20 12:32:52;;;;;;;26.07;13.40;;;7.10;99.90;;;;;;5027273;28;20344;-62
2022/12/20 12:35:53;;;;;;;33.37;16.33;;;7.10;99.90;;;;;;5026127;28;20189;-61
2022/12/20 12:38:47;;;;;;;31.57;14.53;;;7.20;99.90;;;;;;5017345;28;20209;-62
2022/12/20 12:41:53;;;;;;;27.97;14.17;;;7.10;99.90;;;;;;5010441;28;20377;-61
2022/12/20 12:44:48;;;;;;;37.83;15.87;;;7.10;99.90;;;;;;5023904;28;20222;-62
2022/12/20 12:47:22;;;;;;;28.17;13.40;;;7.00;99.90;;;;;;5008962;28;20206;-61
2022/12/20 12:49:53;;;;;;;29.93;15.00;;;7.00;99.90;;;;;;5005402;28;20195;-62
2022/12/20 12:52:42;;;;;;;35.23;16.90;;;7.00;99.90;;;;;;5024908;28;20240;-62
2022/12/20 12:55:45;;;;;;;31.10;15.27;;;7.00;99.90;;;;;;5022708;28;20191;-62
2022/12/20 12:58:34;;;;;;;34.90;16.40;;;7.00;99.90;;;;;;5024913;28;20198;-62
2022/12/20 13:01:06;;;;;;;39.30;17.90;;;7.00;99.90;;;;;;5023952;28;20234;-62
2022/12/20 13:03:46;;;;;;;32.83;15.67;;;6.90;99.90;;;;;;5024635;28;20620;-62
2022/12/20 13:07:05;;;;;;;30.00;14.53;;;6.90;99.90;;;;;;5022490;28;20194;-62
2022/12/20 13:09:42;;;;;;;29.40;14.37;;;7.00;99.90;;;;;;5023541;28;20206;-61
2022/12/20 13:12:46;;;;;;;34.20;15.67;;;6.90;99.90;;;;;;5026091;28;20210;-62
2022/12/20 13:15:46;;;;;;;31.90;15.93;;;6.90;99.90;;;;;;5013115;28;20217;-62